TimeMST,TemperatureF,Dew PointF,Humidity,Sea Level PressureIn,VisibilityMPH,Wind Direction,Wind SpeedMPH,Gust SpeedMPH,PrecipitationIn,Events,Conditions,WindDirDegrees,DateUTC
12:48 AM,41.0,7.0,25,30.11,10.0,Calm,Calm,-,N/A,,Clear,0,2011-11-03 07:48:00
1:48 AM,45.0,8.1,22,30.09,10.0,Calm,Calm,-,N/A,,Clear,0,2011-11-03 08:48:00
2:48 AM,39.9,6.1,25,30.07,10.0,ESE,4.6,-,N/A,,Clear,110,2011-11-03 09:48:00
3:48 AM,39.0,6.1,26,30.06,10.0,ESE,8.1,-,N/A,,Clear,110,2011-11-03 10:48:00
4:48 AM,39.0,6.1,26,30.07,10.0,ESE,8.1,-,N/A,,Clear,110,2011-11-03 11:48:00
5:48 AM,39.9,6.1,25,30.07,10.0,ESE,11.5,-,N/A,,Clear,120,2011-11-03 12:48:00
6:48 AM,37.0,6.1,28,30.09,10.0,East,9.2,-,N/A,,Clear,100,2011-11-03 13:48:00
7:48 AM,39.9,7.0,26,30.08,10.0,ESE,9.2,-,N/A,,Clear,120,2011-11-03 14:48:00
8:48 AM,51.1,8.1,18,30.07,10.0,East,5.8,-,N/A,,Clear,90,2011-11-03 15:48:00
9:48 AM,52.0,8.1,17,30.06,10.0,North,4.6,-,N/A,,Clear,350,2011-11-03 16:48:00
10:48 AM,57.9,7.0,13,30.03,10.0,NNE,3.5,-,N/A,,Clear,20,2011-11-03 17:48:00
11:48 AM,64.0,6.1,10,29.97,10.0,North,-9999.0,-,N/A,,Clear,0,2011-11-03 18:48:00
12:48 PM,66.0,5.0,9,29.93,10.0,Calm,Calm,-,N/A,,Clear,0,2011-11-03 19:48:00
1:48 PM,66.9,5.0,9,29.88,10.0,NNW,4.6,-,N/A,,Clear,340,2011-11-03 20:48:00
2:48 PM,66.9,5.0,9,29.87,10.0,WSW,10.4,-,N/A,,Clear,240,2011-11-03 21:48:00
3:48 PM,68.0,6.1,9,29.84,10.0,WSW,12.7,-,N/A,,Clear,250,2011-11-03 22:48:00
4:48 PM,64.0,7.0,11,29.83,10.0,SW,16.1,-,N/A,,Clear,230,2011-11-03 23:48:00
5:48 PM,59.0,7.0,13,29.83,10.0,SW,9.2,-,N/A,,Clear,220,2011-11-04 00:48:00
6:48 PM,55.0,7.0,15,29.84,10.0,SW,6.9,-,N/A,,Clear,220,2011-11-04 01:48:00
7:48 PM,51.1,8.1,18,29.83,10.0,SSW,3.5,-,N/A,,Clear,210,2011-11-04 02:48:00
8:48 PM,57.0,15.1,19,29.79,10.0,SSE,10.4,-,N/A,,Clear,150,2011-11-04 03:48:00
9:48 PM,60.1,8.1,13,29.78,10.0,SSE,11.5,-,N/A,,Clear,160,2011-11-04 04:48:00
10:48 PM,55.9,10.0,16,29.76,10.0,SSW,3.5,-,N/A,,Clear,200,2011-11-04 05:48:00
11:48 PM,57.9,10.9,16,29.73,10.0,SE,4.6,-,N/A,,Clear,140,2011-11-04 06:48:00